createdAt,value
2023-03-19T00:01:10.107Z,6.53
2023-03-19T00:03:38.580Z,7.35
2023-03-19T00:06:07.322Z,4.07
2023-03-19T00:08:35.807Z,5.07
2023-03-19T00:11:08.023Z,4.30
2023-03-19T00:13:36.683Z,6.43
2023-03-19T00:16:05.216Z,6.90
2023-03-19T00:18:35.050Z,6.10
2023-03-19T00:21:03.520Z,5.88
2023-03-19T00:23:31.971Z,6.28
2023-03-19T00:26:00.449Z,5.40
2023-03-19T00:28:28.877Z,6.35
2023-03-19T00:30:57.366Z,4.95
2023-03-19T00:33:26.730Z,5.38
2023-03-19T00:35:56.549Z,6.25
2023-03-19T00:38:24.987Z,6.07
2023-03-19T00:40:53.446Z,5.10
2023-03-19T00:43:21.970Z,4.80
2023-03-19T00:45:50.453Z,4.90
2023-03-19T00:48:18.971Z,5.82
2023-03-19T00:50:47.412Z,7.25
2023-03-19T00:53:17.177Z,10.50
2023-03-19T00:55:45.648Z,8.27
2023-03-19T00:58:14.096Z,5.03
2023-03-19T01:00:42.548Z,4.35
2023-03-19T01:03:11.033Z,5.47
2023-03-19T01:05:39.509Z,4.07
2023-03-19T01:08:08.000Z,4.72
2023-03-19T01:10:37.800Z,3.85
2023-03-19T01:13:06.860Z,6.43
2023-03-19T01:15:37.502Z,5.63
2023-03-19T01:18:06.111Z,6.25
2023-03-19T01:20:34.797Z,5.28
2023-03-19T01:23:03.394Z,7.63
2023-03-19T01:25:32.079Z,7.20
2023-03-19T01:28:01.913Z,4.78
2023-03-19T01:30:30.831Z,6.15
2023-03-19T01:32:59.360Z,7.13
2023-03-19T01:35:27.877Z,4.40
2023-03-19T01:37:56.318Z,8.73
2023-03-19T01:40:24.734Z,4.68
2023-03-19T01:42:54.011Z,6.13
2023-03-19T01:45:37.160Z,7.75
2023-03-19T01:48:06.366Z,4.90
2023-03-19T01:50:39.112Z,7.60
2023-03-19T01:53:07.626Z,6.05
2023-03-19T01:55:36.288Z,6.75
2023-03-19T01:58:06.543Z,4.85
2023-03-19T02:00:37.015Z,5.57
2023-03-19T02:03:06.222Z,5.30
2023-03-19T02:05:35.885Z,7.68
2023-03-19T02:08:07.070Z,5.40
2023-03-19T02:10:35.891Z,6.30
2023-03-19T02:13:04.530Z,6.45
2023-03-19T02:15:33.036Z,6.90
2023-03-19T02:18:02.868Z,7.28
2023-03-19T02:20:34.186Z,9.25
2023-03-19T02:23:06.643Z,7.53
2023-03-19T02:25:39.543Z,7.43
2023-03-19T02:28:11.073Z,9.70
2023-03-19T02:30:39.776Z,5.72
2023-03-19T02:33:08.246Z,5.10
2023-03-19T02:35:37.033Z,5.10
2023-03-19T02:38:07.209Z,4.68
2023-03-19T02:40:37.572Z,6.68
2023-03-19T02:43:06.337Z,7.13
2023-03-19T02:45:36.276Z,9.00
2023-03-19T02:48:05.231Z,6.57
2023-03-19T02:50:33.919Z,9.82
2023-03-19T02:53:02.499Z,6.05
2023-03-19T02:55:31.016Z,6.00
2023-03-19T02:57:59.444Z,4.80
2023-03-19T03:00:28.240Z,5.22
2023-03-19T03:02:59.200Z,8.95
2023-03-19T03:05:27.785Z,6.38
2023-03-19T03:07:56.255Z,6.03
2023-03-19T03:10:24.636Z,8.65
2023-03-19T03:12:53.104Z,7.70
2023-03-19T03:15:21.600Z,6.90
2023-03-19T03:17:50.050Z,9.23
2023-03-19T03:20:20.711Z,7.80
2023-03-19T03:22:49.337Z,5.43
2023-03-19T03:25:18.100Z,7.80
2023-03-19T03:27:46.796Z,9.95
2023-03-19T03:30:16.038Z,5.28
2023-03-19T03:32:44.577Z,8.05
2023-03-19T03:35:13.091Z,5.90
2023-03-19T03:37:42.961Z,5.70
2023-03-19T03:40:11.909Z,6.35
2023-03-19T03:42:40.335Z,5.97
2023-03-19T03:45:09.639Z,6.80
2023-03-19T03:47:38.445Z,7.93
2023-03-19T03:50:07.277Z,7.45
2023-03-19T03:52:35.844Z,4.85
2023-03-19T03:55:06.005Z,5.38
2023-03-19T03:57:34.612Z,7.38
2023-03-19T04:00:03.038Z,5.90
2023-03-19T04:02:31.718Z,5.93
2023-03-19T04:05:00.232Z,5.18
2023-03-19T04:07:28.679Z,4.60
2023-03-19T04:09:59.230Z,6.78
2023-03-19T04:12:29.044Z,5.47
2023-03-19T04:14:57.536Z,4.97
2023-03-19T04:17:26.152Z,6.28
2023-03-19T04:19:54.596Z,7.50
2023-03-19T04:22:23.092Z,6.40
2023-03-19T04:24:51.568Z,4.50
2023-03-19T04:27:20.013Z,6.15
2023-03-19T04:29:49.808Z,6.10
2023-03-19T04:32:18.374Z,8.10
2023-03-19T04:34:46.824Z,8.10
2023-03-19T04:37:15.347Z,8.30
2023-03-19T04:39:44.425Z,5.07
2023-03-19T04:42:12.913Z,6.25
2023-03-19T04:44:42.112Z,7.70
2023-03-19T04:47:12.233Z,5.78
2023-03-19T04:49:40.648Z,6.22
2023-03-19T04:52:09.421Z,5.40
2023-03-19T04:54:38.079Z,6.47
2023-03-19T04:57:07.137Z,6.55
2023-03-19T04:59:35.583Z,8.00
2023-03-19T05:02:04.033Z,5.55
2023-03-19T05:04:34.020Z,5.28
2023-03-19T05:07:02.867Z,5.10
2023-03-19T05:09:31.843Z,5.40
2023-03-19T05:12:00.464Z,5.72
2023-03-19T05:14:29.345Z,4.93
2023-03-19T05:16:57.788Z,4.28
2023-03-19T05:19:26.439Z,7.05
2023-03-19T05:21:57.247Z,5.45
2023-03-19T05:24:25.708Z,4.50
2023-03-19T05:26:54.090Z,5.93
2023-03-19T05:29:22.613Z,4.35
2023-03-19T05:31:51.416Z,4.28
2023-03-19T05:34:19.874Z,4.55
2023-03-19T05:36:48.362Z,5.00
2023-03-19T05:39:18.205Z,5.35
2023-03-19T05:41:46.781Z,3.60
2023-03-19T05:44:15.234Z,5.78
2023-03-19T05:46:43.836Z,4.57
2023-03-19T05:49:12.280Z,4.88
2023-03-19T05:51:41.058Z,4.82
2023-03-19T05:54:09.663Z,5.93
2023-03-19T05:56:39.610Z,6.28
2023-03-19T05:59:08.317Z,5.88
2023-03-19T06:01:36.778Z,5.45
2023-03-19T06:04:06.288Z,4.90
2023-03-19T06:06:34.926Z,6.25
2023-03-19T06:09:03.577Z,6.75
2023-03-19T06:11:32.111Z,6.68
2023-03-19T06:14:01.938Z,5.40
2023-03-19T06:16:30.445Z,6.90
2023-03-19T06:18:59.166Z,6.53
2023-03-19T06:21:29.869Z,6.25
2023-03-19T06:23:58.380Z,6.65
2023-03-19T06:26:29.008Z,4.97
2023-03-19T06:28:57.511Z,6.13
2023-03-19T06:31:27.657Z,5.30
2023-03-19T06:33:56.396Z,5.28
2023-03-19T06:36:24.986Z,6.88
2023-03-19T06:38:53.470Z,5.57
2023-03-19T06:41:21.962Z,4.75
2023-03-19T06:43:50.603Z,6.38
2023-03-19T06:46:19.083Z,5.65
2023-03-19T06:48:48.965Z,6.15
2023-03-19T06:51:17.380Z,5.55
2023-03-19T06:53:45.985Z,6.82
2023-03-19T06:56:14.435Z,5.82
2023-03-19T06:58:43.034Z,6.50
2023-03-19T07:01:11.633Z,5.05
2023-03-19T07:03:40.546Z,6.60
2023-03-19T07:06:10.424Z,5.25
2023-03-19T07:08:39.256Z,7.03
2023-03-19T07:11:08.387Z,5.78
2023-03-19T07:13:38.046Z,4.90
2023-03-19T07:16:07.213Z,5.32
2023-03-19T07:18:35.731Z,6.15
2023-03-19T07:21:04.243Z,6.97
2023-03-19T07:23:34.233Z,6.47
2023-03-19T07:26:03.116Z,5.47
2023-03-19T07:28:31.813Z,5.55
2023-03-19T07:31:00.270Z,5.40
2023-03-19T07:33:28.715Z,5.38
2023-03-19T07:35:57.164Z,5.40
2023-03-19T07:38:25.612Z,7.30
2023-03-19T07:41:02.453Z,6.13
2023-03-19T07:43:31.516Z,5.05
2023-03-19T07:46:00.074Z,8.55
2023-03-19T07:48:28.716Z,7.53
2023-03-19T07:50:57.124Z,6.05
2023-03-19T07:53:25.547Z,6.45
2023-03-19T07:55:55.343Z,6.63
2023-03-19T07:58:23.792Z,6.30
2023-03-19T08:00:52.211Z,5.70
2023-03-19T08:03:20.649Z,8.30
2023-03-19T08:05:50.534Z,6.15
2023-03-19T08:08:19.380Z,6.38
2023-03-19T08:10:50.702Z,6.13
2023-03-19T08:13:20.543Z,7.57
2023-03-19T08:15:49.039Z,6.18
2023-03-19T08:18:18.004Z,7.25
2023-03-19T08:20:46.963Z,7.15
2023-03-19T08:23:15.489Z,6.85
2023-03-19T08:25:43.970Z,6.40
2023-03-19T08:28:12.650Z,6.45
2023-03-19T08:30:42.780Z,5.85
2023-03-19T08:33:11.343Z,5.43
2023-03-19T08:35:40.781Z,6.40
2023-03-19T08:38:10.026Z,6.75
2023-03-19T08:40:38.478Z,6.63
2023-03-19T08:43:07.370Z,6.75
2023-03-19T08:45:35.807Z,6.10
2023-03-19T08:48:05.792Z,6.25
2023-03-19T08:50:34.340Z,6.07
2023-03-19T08:53:02.952Z,5.45
2023-03-19T08:55:31.466Z,5.47
2023-03-19T08:57:59.922Z,5.88
2023-03-19T09:00:29.039Z,6.43
2023-03-19T09:02:57.512Z,6.10
2023-03-19T09:05:29.694Z,5.30
2023-03-19T09:07:58.401Z,5.97
2023-03-19T09:10:26.858Z,6.50
2023-03-19T09:12:55.387Z,5.88
2023-03-19T09:15:23.863Z,6.18
2023-03-19T09:17:52.376Z,6.57
2023-03-19T09:20:21.107Z,5.78
2023-03-19T09:22:50.902Z,5.07
2023-03-19T09:25:19.395Z,5.15
2023-03-19T09:27:47.880Z,6.10
2023-03-19T09:30:16.583Z,8.63
2023-03-19T09:32:45.181Z,6.50
2023-03-19T09:35:14.127Z,6.55
2023-03-19T09:37:42.704Z,6.20
2023-03-19T09:40:18.419Z,8.77
2023-03-19T09:42:51.339Z,5.75
2023-03-19T09:45:20.589Z,6.05
2023-03-19T09:47:51.633Z,7.05
2023-03-19T09:50:21.678Z,6.03
2023-03-19T09:52:51.471Z,6.43
2023-03-19T09:55:27.933Z,5.75
2023-03-19T09:57:58.974Z,5.70
2023-03-19T10:00:28.563Z,5.85
2023-03-19T10:03:03.397Z,6.88
2023-03-19T10:05:37.003Z,5.65
2023-03-19T10:08:27.439Z,6.82
2023-03-19T10:11:04.736Z,5.47
2023-03-19T10:13:40.785Z,5.70
2023-03-19T10:16:13.743Z,5.25
2023-03-19T10:18:46.720Z,5.20
2023-03-19T10:21:18.086Z,4.80
2023-03-19T10:23:48.323Z,5.88
2023-03-19T10:26:19.727Z,6.40
2023-03-19T10:28:57.472Z,5.70
2023-03-19T10:31:30.423Z,4.93
2023-03-19T10:34:04.073Z,5.20
2023-03-19T10:36:35.399Z,5.60
2023-03-19T10:39:06.463Z,6.47
2023-03-19T10:41:43.109Z,8.07
2023-03-19T10:44:14.359Z,7.97
2023-03-19T10:46:43.038Z,9.05
2023-03-19T10:49:14.100Z,7.30
2023-03-19T10:51:44.800Z,7.70
2023-03-19T10:54:23.747Z,7.40
2023-03-19T10:56:56.800Z,8.30
2023-03-19T10:59:27.012Z,8.38
2023-03-19T11:01:59.480Z,8.93
2023-03-19T11:04:29.721Z,7.65
2023-03-19T11:07:03.727Z,8.60
2023-03-19T11:09:34.917Z,7.22
2023-03-19T11:12:09.673Z,6.88
2023-03-19T11:14:39.096Z,8.00
2023-03-19T11:17:09.430Z,6.75
2023-03-19T11:19:42.321Z,7.35
2023-03-19T11:22:18.458Z,7.30
2023-03-19T11:24:53.309Z,7.35
2023-03-19T11:27:28.639Z,8.32
2023-03-19T11:29:57.688Z,8.00
2023-03-19T11:32:43.809Z,9.32
2023-03-19T11:35:13.260Z,8.60
2023-03-19T11:37:50.114Z,8.82
2023-03-19T11:40:33.366Z,8.38
2023-03-19T11:43:08.393Z,7.10
2023-03-19T11:45:41.521Z,12.25
2023-03-19T11:48:19.415Z,9.93
2023-03-19T11:50:51.240Z,9.15
2023-03-19T11:53:25.440Z,8.57
2023-03-19T11:55:56.569Z,10.35
2023-03-19T11:58:46.626Z,9.98
2023-03-19T12:01:20.522Z,7.90
2023-03-19T12:04:08.781Z,9.05
2023-03-19T12:06:47.653Z,8.07
2023-03-19T12:09:21.563Z,11.32
2023-03-19T12:11:54.610Z,9.68
2023-03-19T12:14:30.210Z,8.10
2023-03-19T12:17:06.961Z,8.75
2023-03-19T12:19:53.728Z,11.73
2023-03-19T12:22:27.155Z,8.75
2023-03-19T12:25:03.121Z,9.98
2023-03-19T12:27:35.139Z,7.95
2023-03-19T12:30:14.245Z,8.57
2023-03-19T12:32:54.068Z,7.03
2023-03-19T12:35:26.613Z,6.75
2023-03-19T12:37:58.825Z,7.97
2023-03-19T12:40:29.344Z,6.80
2023-03-19T12:42:59.363Z,7.65
2023-03-19T12:45:32.521Z,6.22
2023-03-19T12:48:04.322Z,6.03
2023-03-19T12:50:34.223Z,4.70
2023-03-19T12:53:04.179Z,4.95
2023-03-19T12:55:36.970Z,3.95
2023-03-19T12:58:08.011Z,5.50
2023-03-19T13:00:39.526Z,4.88
2023-03-19T13:03:09.746Z,4.50
2023-03-19T13:05:41.625Z,4.43
2023-03-19T13:08:17.145Z,4.00
2023-03-19T13:10:45.637Z,4.63
2023-03-19T13:13:25.150Z,3.72
2023-03-19T13:15:57.316Z,3.42
2023-03-19T13:18:33.290Z,3.60
2023-03-19T13:21:06.468Z,3.20
2023-03-19T13:23:36.559Z,6.75
2023-03-19T13:26:07.920Z,4.70
2023-03-19T13:28:37.516Z,5.53
2023-03-19T13:31:08.930Z,4.22
2023-03-19T13:33:38.707Z,3.38
2023-03-19T13:36:09.009Z,3.80
2023-03-19T13:38:41.062Z,5.53
2023-03-19T13:41:24.326Z,3.35
2023-03-19T13:43:56.602Z,3.38
2023-03-19T13:46:40.837Z,3.85
2023-03-19T13:49:28.130Z,4.13
2023-03-19T13:51:58.413Z,3.30
2023-03-19T13:54:37.725Z,4.63
2023-03-19T13:57:08.763Z,6.40
2023-03-19T13:59:37.754Z,6.15
2023-03-19T14:02:33.069Z,4.22
2023-03-19T14:05:03.068Z,5.60
2023-03-19T14:07:32.638Z,4.93
2023-03-19T14:10:07.087Z,6.88
2023-03-19T14:12:36.799Z,4.97
2023-03-19T14:15:17.928Z,7.68
2023-03-19T14:17:56.464Z,5.40
2023-03-19T14:20:33.680Z,5.85
2023-03-19T14:23:26.222Z,6.68
2023-03-19T14:26:06.533Z,4.50
2023-03-19T14:28:41.436Z,5.57
2023-03-19T14:31:19.777Z,7.00
2023-03-19T14:33:52.295Z,4.47
2023-03-19T14:36:22.077Z,5.93
2023-03-19T14:38:52.352Z,5.40
2023-03-19T14:41:21.910Z,3.83
2023-03-19T14:44:22.283Z,6.07
2023-03-19T14:46:58.715Z,4.00
2023-03-19T14:49:45.987Z,4.55
2023-03-19T14:52:16.476Z,5.75
2023-03-19T14:54:49.170Z,4.50
2023-03-19T14:57:19.076Z,4.13
2023-03-19T14:59:47.936Z,5.93
2023-03-19T15:02:21.622Z,4.20
2023-03-19T15:04:51.629Z,5.55
2023-03-19T15:07:21.917Z,4.15
2023-03-19T15:09:53.631Z,4.35
2023-03-19T15:12:43.468Z,6.10
2023-03-19T15:15:19.834Z,5.25
2023-03-19T15:18:03.010Z,5.55
2023-03-19T15:20:36.058Z,4.18
2023-03-19T15:23:11.038Z,5.32
2023-03-19T15:25:48.654Z,3.50
2023-03-19T15:28:18.548Z,3.92
2023-03-19T15:30:58.435Z,4.18
2023-03-19T15:33:40.077Z,4.95
2023-03-19T15:36:12.647Z,3.70
2023-03-19T15:38:42.428Z,5.13
2023-03-19T15:41:12.499Z,3.47
2023-03-19T15:43:41.595Z,4.78
2023-03-19T15:46:12.403Z,5.55
2023-03-19T15:48:43.773Z,4.65
2023-03-19T15:51:14.909Z,6.32
2023-03-19T15:53:43.509Z,4.85
2023-03-19T15:56:15.104Z,8.98
2023-03-19T15:58:47.145Z,5.13
2023-03-19T16:01:16.408Z,6.22
2023-03-19T16:03:45.993Z,5.07
2023-03-19T16:06:19.311Z,6.05
2023-03-19T16:08:48.893Z,4.30
2023-03-19T16:11:18.441Z,4.55
2023-03-19T16:13:55.224Z,5.20
2023-03-19T16:16:24.589Z,5.60
2023-03-19T16:18:53.803Z,3.40
2023-03-19T16:21:26.448Z,4.60
2023-03-19T16:23:56.967Z,4.43
2023-03-19T16:26:26.828Z,4.82
2023-03-19T16:28:59.219Z,3.72
2023-03-19T16:31:32.048Z,3.45
2023-03-19T16:34:00.873Z,3.65
2023-03-19T16:36:32.290Z,3.67
2023-03-19T16:39:15.740Z,5.47
2023-03-19T16:41:44.252Z,3.65
2023-03-19T16:44:14.557Z,5.88
2023-03-19T16:46:43.297Z,4.00
2023-03-19T16:49:11.860Z,4.47
2023-03-19T16:51:41.876Z,3.78
2023-03-19T16:54:12.072Z,3.42
2023-03-19T16:56:40.842Z,3.78
2023-03-19T16:59:11.382Z,3.95
2023-03-19T17:01:40.061Z,4.10
2023-03-19T17:04:12.428Z,5.00
2023-03-19T17:06:42.325Z,5.70
2023-03-19T17:09:11.196Z,4.55
2023-03-19T17:11:41.265Z,5.13
2023-03-19T17:14:14.947Z,5.05
2023-03-19T17:16:48.488Z,3.97
2023-03-19T17:19:19.242Z,4.10
2023-03-19T17:21:49.859Z,4.22
2023-03-19T17:24:23.343Z,4.85
2023-03-19T17:26:52.388Z,5.68
2023-03-19T17:29:23.131Z,6.72
2023-03-19T17:31:51.946Z,8.77
2023-03-19T17:34:21.904Z,7.38
2023-03-19T17:36:52.883Z,5.93
2023-03-19T17:39:21.719Z,6.63
2023-03-19T17:41:50.246Z,7.70
2023-03-19T17:44:18.728Z,6.85
2023-03-19T17:46:48.552Z,6.95
2023-03-19T17:49:21.041Z,6.93
2023-03-19T17:51:49.538Z,5.70
2023-03-19T17:54:20.028Z,6.90
2023-03-19T17:56:48.632Z,8.85
2023-03-19T17:59:17.212Z,7.97
2023-03-19T18:01:47.224Z,7.70
2023-03-19T18:04:17.084Z,6.10
2023-03-19T18:06:46.964Z,6.75
2023-03-19T18:09:20.427Z,5.93
2023-03-19T18:11:50.675Z,6.43
2023-03-19T18:14:19.475Z,6.72
2023-03-19T18:16:48.125Z,4.93
2023-03-19T18:19:20.595Z,6.80
2023-03-19T18:21:49.282Z,6.13
2023-03-19T18:24:17.796Z,8.88
2023-03-19T18:26:46.291Z,8.57
2023-03-19T18:29:16.571Z,7.65
2023-03-19T18:31:46.090Z,4.78
2023-03-19T18:34:15.749Z,5.68
2023-03-19T18:36:44.417Z,5.38
2023-03-19T18:39:13.930Z,7.13
2023-03-19T18:41:42.760Z,7.35
2023-03-19T18:44:12.359Z,6.75
2023-03-19T18:46:42.780Z,8.85
2023-03-19T18:49:17.187Z,9.05
2023-03-19T18:52:01.177Z,13.10
2023-03-19T18:54:31.923Z,14.25
2023-03-19T18:57:01.397Z,11.73
2023-03-19T18:59:32.512Z,12.93
2023-03-19T19:02:03.206Z,18.15
2023-03-19T19:04:31.944Z,17.25
2023-03-19T19:07:01.708Z,18.92
2023-03-19T19:09:30.174Z,20.42
2023-03-19T19:12:01.025Z,20.10
2023-03-19T19:14:30.197Z,19.52
2023-03-19T19:16:58.847Z,21.52
2023-03-19T19:19:29.123Z,19.42
2023-03-19T19:21:57.627Z,23.38
2023-03-19T19:24:26.161Z,22.13
2023-03-19T19:26:55.630Z,20.73
2023-03-19T19:29:25.579Z,22.80
2023-03-19T19:31:54.557Z,21.35
2023-03-19T19:34:23.388Z,23.27
2023-03-19T19:36:55.506Z,23.13
2023-03-19T19:39:24.008Z,23.33
2023-03-19T19:41:53.556Z,26.75
2023-03-19T19:44:22.202Z,23.52
2023-03-19T19:46:53.329Z,25.48
2023-03-19T19:49:23.191Z,18.98
2023-03-19T19:51:53.030Z,22.08
2023-03-19T19:54:21.766Z,24.30
2023-03-19T19:56:50.317Z,20.10
2023-03-19T19:59:18.861Z,22.02
2023-03-19T20:01:47.647Z,21.70
2023-03-19T20:04:16.626Z,23.08
2023-03-19T20:06:45.830Z,22.63
2023-03-19T20:09:16.185Z,22.88
2023-03-19T20:11:45.879Z,22.27
2023-03-19T20:14:15.409Z,25.33
2023-03-19T20:16:44.214Z,23.90
2023-03-19T20:19:19.036Z,21.80
2023-03-19T20:21:47.742Z,25.52
2023-03-19T20:24:18.398Z,24.70
2023-03-19T20:26:46.881Z,20.10
2023-03-19T20:29:16.614Z,17.98
2023-03-19T20:31:46.262Z,20.92
2023-03-19T20:34:25.525Z,17.52
2023-03-19T20:37:01.329Z,18.65
2023-03-19T20:39:31.260Z,19.55
2023-03-19T20:41:59.706Z,17.30
2023-03-19T20:44:28.994Z,18.92
2023-03-19T20:46:59.029Z,18.85
2023-03-19T20:49:29.094Z,18.90
2023-03-19T20:51:57.562Z,19.33
2023-03-19T20:54:26.139Z,19.13
2023-03-19T20:56:56.336Z,21.35
2023-03-19T20:59:26.860Z,18.13
2023-03-19T21:01:56.590Z,16.80
2023-03-19T21:04:25.209Z,18.88
2023-03-19T21:06:54.593Z,24.27
2023-03-19T21:09:24.160Z,23.20
2023-03-19T21:11:53.812Z,21.90
2023-03-19T21:14:27.024Z,23.17
2023-03-19T21:16:56.221Z,20.85
2023-03-19T21:19:25.057Z,25.23
2023-03-19T21:21:53.898Z,23.30
2023-03-19T21:24:22.756Z,22.52
2023-03-19T21:26:51.561Z,22.42
2023-03-19T21:29:23.824Z,21.50
2023-03-19T21:31:54.785Z,25.48
2023-03-19T21:34:24.476Z,26.80
2023-03-19T21:36:52.970Z,20.02
2023-03-19T21:39:22.383Z,25.23
2023-03-19T21:41:51.294Z,23.92
2023-03-19T21:47:06.674Z,28.52
2023-03-19T21:49:35.889Z,26.80
2023-03-19T21:52:04.724Z,25.40
2023-03-19T21:54:33.364Z,26.65
2023-03-19T21:57:02.353Z,23.25
2023-03-19T21:59:33.821Z,21.52
2023-03-19T22:02:04.392Z,22.70
2023-03-19T22:04:34.513Z,21.63
2023-03-19T22:07:03.293Z,20.20
2023-03-19T22:09:32.068Z,21.45
2023-03-19T22:12:00.883Z,20.63
2023-03-19T22:14:30.206Z,19.42
2023-03-19T22:16:59.423Z,20.20
2023-03-19T22:19:28.384Z,22.80
2023-03-19T22:21:58.366Z,20.63
2023-03-19T22:24:27.066Z,22.90
2023-03-19T22:26:58.820Z,19.48
2023-03-19T22:29:27.552Z,21.02
2023-03-19T22:31:57.308Z,19.73
2023-03-19T22:34:27.849Z,20.67
2023-03-19T22:36:56.518Z,20.50
2023-03-19T22:39:26.864Z,21.05
2023-03-19T22:41:55.665Z,21.92
2023-03-19T22:44:26.518Z,20.10
2023-03-19T22:46:55.972Z,23.60
2023-03-19T22:49:24.869Z,23.77
2023-03-19T22:51:53.396Z,27.00
2023-03-19T22:54:21.934Z,27.27
2023-03-19T22:56:51.770Z,26.33
2023-03-19T22:59:20.249Z,28.13
2023-03-19T23:01:49.214Z,27.75
2023-03-19T23:04:20.829Z,27.58
2023-03-19T23:06:49.488Z,21.85
2023-03-19T23:09:18.717Z,26.45
2023-03-19T23:11:48.205Z,21.65
2023-03-19T23:14:28.938Z,20.58
2023-03-19T23:17:01.620Z,21.90
2023-03-19T23:19:31.003Z,21.98
2023-03-19T23:22:00.194Z,32.55
2023-03-19T23:24:30.534Z,31.17
2023-03-19T23:27:00.048Z,29.85
2023-03-19T23:29:32.418Z,27.73
2023-03-19T23:32:01.000Z,27.58
2023-03-19T23:34:29.654Z,30.35
2023-03-19T23:37:00.007Z,29.63
2023-03-19T23:39:28.916Z,24.85
2023-03-19T23:41:58.789Z,26.50
2023-03-19T23:44:29.052Z,25.08
2023-03-19T23:47:00.943Z,20.40
2023-03-19T23:49:30.266Z,20.88
2023-03-19T23:51:58.987Z,22.10
2023-03-19T23:54:29.648Z,19.77
2023-03-19T23:56:59.657Z,15.73
2023-03-19T23:59:28.591Z,17.90
